createdAt,value
2022-10-12T00:00:27.336Z,100437.66
2022-10-12T00:03:14.250Z,100430.38
2022-10-12T00:05:41.868Z,100434.19
2022-10-12T00:08:09.139Z,100426.34
2022-10-12T00:10:43.993Z,100425.91
2022-10-12T00:13:11.547Z,100428.22
2022-10-12T00:15:41.925Z,100424.47
2022-10-12T00:18:11.565Z,100427.81
2022-10-12T00:20:38.698Z,100429.34
2022-10-12T00:23:08.204Z,100427.59
2022-10-12T00:25:41.694Z,100421.31
2022-10-12T00:28:08.851Z,100423.34
2022-10-12T00:30:40.311Z,100424.69
2022-10-12T00:33:07.246Z,100421.97
2022-10-12T00:35:34.378Z,100414.91
2022-10-12T00:38:03.649Z,100421.56
2022-10-12T00:40:30.655Z,100422.59
2022-10-12T00:42:57.752Z,100416.28
2022-10-12T00:45:27.414Z,100425.59
2022-10-12T00:48:00.352Z,100423.81
2022-10-12T00:50:31.456Z,100421.56
2022-10-12T00:53:14.284Z,100422.59
2022-10-12T00:55:49.741Z,100419.59
2022-10-12T00:58:16.992Z,100420.38
2022-10-12T01:00:44.683Z,100422.94
2022-10-12T01:03:15.376Z,100420.63
2022-10-12T01:05:42.857Z,100414.47
2022-10-12T01:08:09.769Z,100425.44
2022-10-12T01:10:36.943Z,100434.56
2022-10-12T01:13:04.208Z,100429.53
2022-10-12T01:15:37.006Z,100430.28
2022-10-12T01:18:18.009Z,100430.59
2022-10-12T01:20:45.057Z,100432.44
2022-10-12T01:23:21.541Z,100431.44
2022-10-12T01:26:10.438Z,100430.22
2022-10-12T01:28:55.779Z,100423.38
2022-10-12T01:31:32.949Z,100421.41
2022-10-12T01:34:13.306Z,100432.28
2022-10-12T01:36:45.255Z,100426.47
2022-10-12T01:39:20.446Z,100433.13
2022-10-12T01:41:53.562Z,100422.03
2022-10-12T01:44:25.965Z,100421.59
2022-10-12T01:46:55.452Z,100425.44
2022-10-12T01:49:26.979Z,100419.41
2022-10-12T01:52:21.204Z,100412.84
2022-10-12T01:55:11.053Z,100418.41
2022-10-12T01:58:10.627Z,100424.75
2022-10-12T02:00:55.502Z,100419.28
2022-10-12T02:03:37.697Z,100416.72
2022-10-12T02:06:09.815Z,100422.38
2022-10-12T02:08:45.260Z,100425.47
2022-10-12T02:11:15.032Z,100420.41
2022-10-12T02:13:50.961Z,100421.19
2022-10-12T02:16:19.920Z,100414.88
2022-10-12T02:18:53.055Z,100414.19
2022-10-12T02:21:23.200Z,100424.03
2022-10-12T02:23:53.456Z,100415.00
2022-10-12T02:26:21.808Z,100417.81
2022-10-12T02:28:50.500Z,100410.53
2022-10-12T02:31:23.764Z,100404.75
2022-10-12T02:33:55.120Z,100407.81
2022-10-12T02:36:46.531Z,100408.06
2022-10-12T02:39:20.053Z,100401.56
2022-10-12T02:41:51.039Z,100410.41
2022-10-12T02:44:24.075Z,100402.84
2022-10-12T02:46:53.902Z,100404.13
2022-10-12T02:49:27.043Z,100398.78
2022-10-12T02:51:55.658Z,100404.31
2022-10-12T02:54:25.408Z,100405.09
2022-10-12T02:56:52.646Z,100399.03
2022-10-12T02:59:20.145Z,100403.03
2022-10-12T03:01:47.165Z,100407.84
2022-10-12T03:04:14.509Z,100414.66
2022-10-12T03:06:42.695Z,100408.06
2022-10-12T03:09:10.231Z,100409.63
2022-10-12T03:11:38.151Z,100408.38
2022-10-12T03:14:07.565Z,100411.41
2022-10-12T03:16:36.730Z,100412.19
2022-10-12T03:19:03.925Z,100414.72
2022-10-12T03:21:30.785Z,100417.25
2022-10-12T03:23:57.729Z,100413.00
2022-10-12T03:26:27.058Z,100410.72
2022-10-12T03:28:54.015Z,100412.94
2022-10-12T03:31:20.963Z,100404.88
2022-10-12T03:33:48.073Z,100409.69
2022-10-12T03:36:17.190Z,100400.59
2022-10-12T03:38:44.381Z,100404.38
2022-10-12T03:41:11.295Z,100403.38
2022-10-12T03:43:38.396Z,100401.84
2022-10-12T03:46:05.457Z,100396.28
2022-10-12T03:48:32.603Z,100400.28
2022-10-12T03:50:59.565Z,100401.53
2022-10-12T03:53:29.111Z,100397.50
2022-10-12T03:55:59.178Z,100392.25
2022-10-12T03:58:28.342Z,100400.03
2022-10-12T04:00:55.811Z,100391.25
2022-10-12T04:03:22.891Z,100400.34
2022-10-12T04:05:58.112Z,100399.34
2022-10-12T04:08:26.943Z,100397.88
2022-10-12T04:10:54.361Z,100401.38
2022-10-12T04:13:21.437Z,100403.91
2022-10-12T04:15:48.565Z,100408.97
2022-10-12T04:18:15.572Z,100411.72
2022-10-12T04:20:43.109Z,100409.69
2022-10-12T04:23:10.370Z,100415.97
2022-10-12T04:25:37.299Z,100413.94
2022-10-12T04:28:04.178Z,100422.75
2022-10-12T04:30:33.139Z,100414.94
2022-10-12T04:33:03.099Z,100409.41
2022-10-12T04:35:32.875Z,100406.63
2022-10-12T04:38:02.480Z,100415.66
2022-10-12T04:40:29.851Z,100409.88
2022-10-12T04:42:56.728Z,100412.63
2022-10-12T04:45:23.892Z,100408.13
2022-10-12T04:47:55.613Z,100411.59
2022-10-12T04:50:27.467Z,100411.59
2022-10-12T04:52:56.781Z,100411.09
2022-10-12T04:55:23.992Z,100403.25
2022-10-12T04:57:50.906Z,100407.78
2022-10-12T05:00:18.198Z,100400.03
2022-10-12T05:02:45.135Z,100395.78
2022-10-12T05:05:12.067Z,100402.56
2022-10-12T05:07:39.457Z,100401.31
2022-10-12T05:10:07.151Z,100403.59
2022-10-12T05:12:34.250Z,100407.84
2022-10-12T05:15:01.234Z,100409.63
2022-10-12T05:17:28.443Z,100414.13
2022-10-12T05:19:55.390Z,100412.88
2022-10-12T05:22:22.553Z,100421.22
2022-10-12T05:24:53.595Z,100413.16
2022-10-12T05:27:21.214Z,100425.47
2022-10-12T05:29:48.209Z,100425.22
2022-10-12T05:32:17.448Z,100432.28
2022-10-12T05:34:44.779Z,100427.53
2022-10-12T05:37:12.137Z,100433.59
2022-10-12T05:39:39.519Z,100439.38
2022-10-12T05:42:06.708Z,100439.34
2022-10-12T05:44:33.812Z,100442.13
2022-10-12T05:47:00.984Z,100440.16
2022-10-12T05:49:28.002Z,100441.44
2022-10-12T05:51:57.592Z,100434.63
2022-10-12T05:54:24.806Z,100443.72
2022-10-12T05:56:54.499Z,100454.03
2022-10-12T05:59:23.978Z,100454.78
2022-10-12T06:01:53.627Z,100453.78
2022-10-12T06:04:20.910Z,100455.78
2022-10-12T06:06:48.048Z,100439.19
2022-10-12T06:09:15.749Z,100446.22
2022-10-12T06:12:50.118Z,100455.53
2022-10-12T06:15:17.142Z,100458.03
2022-10-12T06:17:44.240Z,100461.06
2022-10-12T06:20:11.375Z,100467.09
2022-10-12T06:22:38.794Z,100468.34
2022-10-12T06:25:08.564Z,100467.59
2022-10-12T06:27:35.894Z,100472.34
2022-10-12T06:30:04.109Z,100467.56
2022-10-12T06:32:31.144Z,100468.56
2022-10-12T06:34:58.196Z,100471.56
2022-10-12T06:37:48.497Z,100477.84
2022-10-12T06:40:13.284Z,100488.66
2022-10-12T06:42:40.545Z,100478.50
2022-10-12T06:45:08.565Z,100483.00
2022-10-12T06:47:35.452Z,100484.97
2022-10-12T06:50:02.790Z,100484.66
2022-10-12T06:52:29.923Z,100488.84
2022-10-12T06:54:57.038Z,100479.88
2022-10-12T06:57:31.013Z,100485.00
2022-10-12T06:59:58.193Z,100482.63
2022-10-12T07:02:25.250Z,100492.19
2022-10-12T07:04:55.271Z,100494.16
2022-10-12T07:07:22.431Z,100499.44
2022-10-12T07:09:49.676Z,100502.44
2022-10-12T07:12:16.643Z,100504.03
2022-10-12T07:14:43.941Z,100501.53
2022-10-12T07:17:10.851Z,100503.84
2022-10-12T07:19:40.689Z,100497.25
2022-10-12T07:22:07.940Z,100505.97
2022-10-12T07:24:37.923Z,100499.84
2022-10-12T07:27:09.966Z,100501.50
2022-10-12T07:29:38.297Z,100499.81
2022-10-12T07:32:07.471Z,100500.22
2022-10-12T07:34:35.077Z,100496.38
2022-10-12T07:37:04.338Z,100496.41
2022-10-12T07:39:31.510Z,100495.53
2022-10-12T07:41:58.481Z,100496.91
2022-10-12T07:44:28.405Z,100491.28
2022-10-12T07:46:55.545Z,100499.47
2022-10-12T07:49:22.699Z,100495.19
2022-10-12T07:51:49.881Z,100501.75
2022-10-12T07:54:20.943Z,100503.72
2022-10-12T07:56:50.146Z,100492.78
2022-10-12T07:59:17.168Z,100492.78
2022-10-12T08:01:44.339Z,100483.06
2022-10-12T08:04:11.479Z,100495.63
2022-10-12T08:06:43.945Z,100497.34
2022-10-12T08:09:13.235Z,100502.41
2022-10-12T08:11:41.134Z,100490.81
2022-10-12T08:14:14.883Z,100501.94
2022-10-12T08:16:43.947Z,100495.63
2022-10-12T08:19:11.485Z,100494.22
2022-10-12T08:21:38.726Z,100493.19
2022-10-12T08:24:05.931Z,100485.69
2022-10-12T08:26:33.395Z,100485.31
2022-10-12T08:29:02.386Z,100478.75
2022-10-12T08:31:29.582Z,100478.09
2022-10-12T08:33:59.956Z,100479.84
2022-10-12T08:36:27.854Z,100490.34
2022-10-12T08:38:55.611Z,100487.25
2022-10-12T08:41:47.934Z,100489.31
2022-10-12T08:44:27.341Z,100485.56
2022-10-12T08:47:11.585Z,100489.63
2022-10-12T08:49:40.392Z,100497.59
2022-10-12T08:52:21.057Z,100490.16
2022-10-12T08:54:48.016Z,100493.84
2022-10-12T08:57:23.271Z,100500.28
2022-10-12T08:59:51.142Z,100501.47
2022-10-12T09:02:38.457Z,100498.78
2022-10-12T09:05:19.139Z,100495.34
2022-10-12T09:07:55.499Z,100491.38
2022-10-12T09:10:40.140Z,100500.09
2022-10-12T09:13:31.472Z,100493.06
2022-10-12T09:16:03.381Z,100492.03
2022-10-12T09:18:43.141Z,100500.72
2022-10-12T09:21:16.980Z,100490.53
2022-10-12T09:23:44.539Z,100487.41
2022-10-12T09:26:17.901Z,100485.06
2022-10-12T09:28:49.146Z,100493.28
2022-10-12T09:31:31.053Z,100503.56
2022-10-12T09:34:00.302Z,100502.38
2022-10-12T09:36:31.535Z,100501.38
2022-10-12T09:39:04.274Z,100494.03
2022-10-12T09:41:41.991Z,100500.63
2022-10-12T09:44:35.138Z,100498.22
2022-10-12T09:47:27.498Z,100502.31
2022-10-12T09:49:58.934Z,100504.16
2022-10-12T09:52:44.866Z,100505.66
2022-10-12T09:55:15.676Z,100505.66
2022-10-12T09:57:52.039Z,100503.47
2022-10-12T10:00:31.465Z,100508.47
2022-10-12T10:02:59.525Z,100504.88
2022-10-12T10:05:27.940Z,100508.34
2022-10-12T10:08:14.718Z,100503.09
2022-10-12T10:11:14.514Z,100499.63
2022-10-12T10:13:48.911Z,100505.47
2022-10-12T10:16:16.895Z,100499.41
2022-10-12T10:18:54.888Z,100501.81
2022-10-12T10:21:33.705Z,100495.69
2022-10-12T10:24:03.340Z,100500.84
2022-10-12T10:27:00.213Z,100494.63
2022-10-12T10:29:30.401Z,100492.63
2022-10-12T10:32:26.717Z,100491.19
2022-10-12T10:35:12.923Z,100486.94
2022-10-12T10:37:46.853Z,100485.91
2022-10-12T10:40:27.470Z,100479.84
2022-10-12T10:43:06.312Z,100480.31
2022-10-12T10:45:34.881Z,100476.75
2022-10-12T10:48:18.573Z,100475.50
2022-10-12T10:50:56.569Z,100478.72
2022-10-12T10:53:28.927Z,100474.34
2022-10-12T10:56:23.202Z,100474.66
2022-10-12T10:58:59.255Z,100483.13
2022-10-12T11:01:52.489Z,100475.38
2022-10-12T11:04:39.867Z,100484.03
2022-10-12T11:07:21.677Z,100475.16
2022-10-12T11:09:54.952Z,100472.19
2022-10-12T11:12:31.222Z,100469.63
2022-10-12T11:15:08.370Z,100474.72
2022-10-12T11:17:42.595Z,100456.50
2022-10-12T11:20:32.050Z,100460.69
2022-10-12T11:23:17.545Z,100449.00
2022-10-12T11:26:15.264Z,100452.19
2022-10-12T11:28:43.113Z,100448.69
2022-10-12T11:31:31.561Z,100442.56
2022-10-12T11:34:03.336Z,100438.84
2022-10-12T11:36:33.629Z,100445.06
2022-10-12T11:39:07.985Z,100450.81
2022-10-12T11:44:47.312Z,100438.56
2022-10-12T11:47:36.555Z,100442.66
2022-10-12T11:50:15.337Z,100441.72
2022-10-12T11:52:47.717Z,100432.75
2022-10-12T11:55:32.466Z,100427.16
2022-10-12T11:58:13.498Z,100420.00
2022-10-12T12:01:17.066Z,100422.09
2022-10-12T12:03:45.469Z,100413.28
2022-10-12T12:06:31.102Z,100416.28
2022-10-12T12:09:17.882Z,100416.09
2022-10-12T12:11:45.007Z,100424.91
2022-10-12T12:14:21.406Z,100415.03
2022-10-12T12:16:51.782Z,100415.56
2022-10-12T12:19:42.371Z,100412.63
2022-10-12T12:22:19.214Z,100416.19
2022-10-12T12:25:15.182Z,100411.34
2022-10-12T12:27:46.741Z,100413.63
2022-10-12T12:30:19.429Z,100413.38
2022-10-12T12:32:50.441Z,100413.72
2022-10-12T12:35:50.883Z,100405.31
2022-10-12T12:38:24.689Z,100404.16
2022-10-12T12:40:59.017Z,100409.59
2022-10-12T12:43:29.137Z,100400.16
2022-10-12T12:45:57.217Z,100400.25
2022-10-12T12:48:42.604Z,100400.25
2022-10-12T12:51:13.747Z,100387.91
2022-10-12T12:53:47.898Z,100392.81
2022-10-12T12:56:43.135Z,100396.59
2022-10-12T12:59:50.159Z,100390.63
2022-10-12T13:02:20.467Z,100389.16
2022-10-12T13:05:09.011Z,100388.25
2022-10-12T13:08:04.610Z,100382.81
2022-10-12T13:10:58.076Z,100386.56
2022-10-12T13:13:38.096Z,100394.41
2022-10-12T13:16:11.827Z,100386.53
2022-10-12T13:19:03.041Z,100391.38
2022-10-12T13:21:38.010Z,100387.59
2022-10-12T13:24:13.921Z,100379.72
2022-10-12T13:26:43.293Z,100386.63
2022-10-12T13:29:20.038Z,100380.66
2022-10-12T13:31:53.976Z,100379.31
2022-10-12T13:34:38.738Z,100383.44
2022-10-12T13:37:12.936Z,100378.22
2022-10-12T13:39:47.210Z,100387.94
2022-10-12T13:42:18.445Z,100372.97
2022-10-12T13:44:47.473Z,100377.28
2022-10-12T13:47:30.109Z,100377.47
2022-10-12T13:49:57.818Z,100384.19
2022-10-12T13:52:34.161Z,100388.28
2022-10-12T13:55:14.551Z,100371.03
2022-10-12T13:57:48.494Z,100375.75
2022-10-12T14:00:21.183Z,100361.66
2022-10-12T14:03:00.263Z,100367.41
2022-10-12T14:05:30.503Z,100363.88
2022-10-12T14:08:02.500Z,100367.97
2022-10-12T14:10:33.073Z,100365.53
2022-10-12T14:13:02.130Z,100361.97
2022-10-12T14:15:33.929Z,100370.25
2022-10-12T14:18:01.075Z,100368.22
2022-10-12T14:20:38.908Z,100368.03
2022-10-12T14:23:22.217Z,100360.97
2022-10-12T14:25:55.411Z,100365.50
2022-10-12T14:28:35.574Z,100363.25
2022-10-12T14:31:07.435Z,100359.16
2022-10-12T14:33:34.549Z,100362.28
2022-10-12T14:36:20.529Z,100357.94
2022-10-12T14:38:48.296Z,100358.81
2022-10-12T14:41:50.172Z,100354.44
2022-10-12T14:44:21.944Z,100353.13
2022-10-12T14:47:05.768Z,100357.94
2022-10-12T14:49:38.875Z,100351.53
2022-10-12T14:52:07.425Z,100343.13
2022-10-12T14:54:35.118Z,100347.66
2022-10-12T14:57:15.122Z,100339.97
2022-10-12T14:59:44.910Z,100350.06
2022-10-12T15:02:20.912Z,100353.41
2022-10-12T15:04:48.201Z,100347.59
2022-10-12T15:07:22.728Z,100348.31
2022-10-12T15:09:50.357Z,100339.28
2022-10-12T15:12:21.315Z,100347.75
2022-10-12T15:14:52.276Z,100344.34
2022-10-12T15:17:20.234Z,100347.00
2022-10-12T15:19:49.314Z,100348.13
2022-10-12T15:22:26.459Z,100348.72
2022-10-12T15:24:54.849Z,100345.81
2022-10-12T15:27:22.801Z,100345.53
2022-10-12T15:29:50.061Z,100351.94
2022-10-12T15:32:19.059Z,100352.06
2022-10-12T15:34:46.104Z,100346.06
2022-10-12T15:37:13.535Z,100355.78
2022-10-12T15:39:41.781Z,100347.19
2022-10-12T15:42:12.291Z,100344.84
2022-10-12T15:44:43.395Z,100342.72
2022-10-12T15:47:11.459Z,100333.03
2022-10-12T15:49:38.992Z,100335.22
2022-10-12T15:52:11.370Z,100330.09
2022-10-12T15:54:42.020Z,100324.94
2022-10-12T15:57:12.393Z,100333.84
2022-10-12T15:59:39.797Z,100335.03
2022-10-12T16:02:12.420Z,100331.50
2022-10-12T16:04:39.908Z,100330.19
2022-10-12T16:07:06.909Z,100333.09
2022-10-12T16:09:34.064Z,100329.78
2022-10-12T16:12:03.443Z,100330.44
2022-10-12T16:14:30.608Z,100326.25
2022-10-12T16:17:00.055Z,100320.97
2022-10-12T16:19:28.079Z,100324.31
2022-10-12T16:21:55.060Z,100327.97
2022-10-12T16:24:22.068Z,100318.97
2022-10-12T16:26:50.028Z,100315.75
2022-10-12T16:29:17.195Z,100316.81
2022-10-12T16:31:44.338Z,100316.38
2022-10-12T16:34:11.328Z,100312.09
2022-10-12T16:36:40.967Z,100321.53
2022-10-12T16:39:07.934Z,100319.28
2022-10-12T16:41:35.235Z,100323.16
2022-10-12T16:44:03.445Z,100324.97
2022-10-12T16:46:31.285Z,100333.63
2022-10-12T16:48:58.277Z,100336.75
2022-10-12T16:51:25.454Z,100333.75
2022-10-12T16:53:52.350Z,100332.03
2022-10-12T16:56:24.468Z,100335.13
2022-10-12T16:58:53.720Z,100340.22
2022-10-12T17:01:20.962Z,100335.00
2022-10-12T17:03:56.254Z,100334.78
2022-10-12T17:06:23.366Z,100336.34
2022-10-12T17:08:50.249Z,100336.69
2022-10-12T17:11:17.444Z,100337.53
2022-10-12T17:13:48.928Z,100340.41
2022-10-12T17:16:36.881Z,100347.03
2022-10-12T17:19:08.446Z,100342.53
2022-10-12T17:21:37.744Z,100340.81
2022-10-12T17:24:05.797Z,100346.41
2022-10-12T17:26:37.252Z,100342.63
2022-10-12T17:29:14.131Z,100340.59
2022-10-12T17:31:48.015Z,100343.69
2022-10-12T17:34:18.738Z,100340.47
2022-10-12T17:36:47.258Z,100342.06
2022-10-12T17:39:15.872Z,100338.06
2022-10-12T17:41:43.187Z,100345.97
2022-10-12T17:44:11.827Z,100336.44
2022-10-12T17:46:40.509Z,100343.38
2022-10-12T17:49:11.315Z,100343.75
2022-10-12T17:51:39.154Z,100354.00
2022-10-12T17:54:06.739Z,100341.94
2022-10-12T17:56:34.689Z,100340.00
2022-10-12T17:59:05.587Z,100343.59
2022-10-12T18:01:35.690Z,100348.94
2022-10-12T18:04:04.910Z,100347.75
2022-10-12T18:06:34.451Z,100340.44
2022-10-12T18:09:04.099Z,100337.75
2022-10-12T18:11:32.635Z,100342.09
2022-10-12T18:14:00.628Z,100337.84
2022-10-12T18:16:33.869Z,100332.88
2022-10-12T18:19:03.558Z,100336.72
2022-10-12T18:21:34.038Z,100336.78
2022-10-12T18:24:07.034Z,100332.03
2022-10-12T18:26:39.173Z,100328.31
2022-10-12T18:29:09.423Z,100332.09
2022-10-12T18:31:37.510Z,100339.44
2022-10-12T18:34:07.046Z,100340.25
2022-10-12T18:36:35.002Z,100335.75
2022-10-12T18:39:05.044Z,100339.06
2022-10-12T18:41:33.667Z,100339.53
2022-10-12T18:44:02.884Z,100351.03
2022-10-12T18:46:33.437Z,100351.50
2022-10-12T18:49:05.168Z,100346.09
2022-10-12T18:51:40.493Z,100344.53
2022-10-12T18:54:08.911Z,100350.56
2022-10-12T18:56:37.667Z,100352.06
2022-10-12T18:59:07.389Z,100345.19
2022-10-12T19:01:36.191Z,100343.41
2022-10-12T19:04:07.245Z,100345.97
2022-10-12T19:06:38.577Z,100340.41
2022-10-12T19:09:07.322Z,100345.72
2022-10-12T19:11:37.774Z,100346.78
2022-10-12T19:14:09.308Z,100344.28
2022-10-12T19:16:37.169Z,100341.28
2022-10-12T19:19:14.894Z,100343.31
2022-10-12T19:21:48.879Z,100342.63
2022-10-12T19:24:16.910Z,100349.69
2022-10-12T19:26:48.732Z,100344.19
2022-10-12T19:29:17.096Z,100341.50
2022-10-12T19:31:48.036Z,100351.63
2022-10-12T19:34:18.366Z,100340.31
2022-10-12T19:36:46.467Z,100348.50
2022-10-12T19:39:23.638Z,100340.97
2022-10-12T19:41:53.312Z,100342.53
2022-10-12T19:44:21.173Z,100343.38
2022-10-12T19:46:51.518Z,100342.16
2022-10-12T19:49:22.808Z,100342.50
2022-10-12T19:51:52.406Z,100347.38
2022-10-12T19:54:20.541Z,100339.81
2022-10-12T19:56:49.071Z,100347.94
2022-10-12T19:59:17.312Z,100342.88
2022-10-12T20:01:48.309Z,100346.22
2022-10-12T20:04:16.852Z,100345.81
2022-10-12T20:06:46.678Z,100337.22
2022-10-12T20:09:17.103Z,100339.59
2022-10-12T20:11:47.635Z,100342.69
2022-10-12T20:14:17.746Z,100341.91
2022-10-12T20:16:45.173Z,100337.91
2022-10-12T20:19:13.738Z,100335.44
2022-10-12T20:21:41.277Z,100336.50
2022-10-12T20:24:09.807Z,100336.31
2022-10-12T20:26:37.617Z,100338.38
2022-10-12T20:29:05.059Z,100324.06
2022-10-12T20:31:32.043Z,100331.94
2022-10-12T20:33:59.770Z,100333.19
2022-10-12T20:36:31.377Z,100338.03
2022-10-12T20:38:59.990Z,100335.00
2022-10-12T20:41:30.881Z,100343.06
2022-10-12T20:43:59.917Z,100333.78
2022-10-12T20:46:27.754Z,100343.88
2022-10-12T20:49:00.944Z,100340.63
2022-10-12T20:51:31.332Z,100341.41
2022-10-12T20:54:00.756Z,100340.16
2022-10-12T20:56:32.851Z,100341.94
2022-10-12T20:59:00.750Z,100343.72
2022-10-12T21:01:28.607Z,100350.53
2022-10-12T21:03:58.574Z,100343.47
2022-10-12T21:06:26.011Z,100345.50
2022-10-12T21:08:54.645Z,100352.31
2022-10-12T21:11:22.400Z,100347.25
2022-10-12T21:13:49.959Z,100342.97
2022-10-12T21:16:16.958Z,100346.50
2022-10-12T21:18:43.901Z,100336.69
2022-10-12T21:21:16.243Z,100330.63
2022-10-12T21:23:45.998Z,100334.13
2022-10-12T21:26:15.879Z,100332.41
2022-10-12T21:28:43.563Z,100325.59
2022-10-12T21:31:11.159Z,100332.66
2022-10-12T21:33:39.276Z,100330.13
2022-10-12T21:36:11.240Z,100334.16
2022-10-12T21:38:39.626Z,100327.34
2022-10-12T21:41:10.711Z,100327.84
2022-10-12T21:43:39.182Z,100325.09
2022-10-12T21:46:11.797Z,100325.09
2022-10-12T21:48:39.504Z,100322.81
2022-10-12T21:51:07.224Z,100320.81
2022-10-12T21:53:35.757Z,100332.13
2022-10-12T21:56:13.212Z,100320.06
2022-10-12T21:58:41.031Z,100316.25
2022-10-12T22:01:11.208Z,100321.28
2022-10-12T22:03:38.147Z,100313.25
2022-10-12T22:06:05.151Z,100317.75
2022-10-12T22:08:32.920Z,100318.03
2022-10-12T22:11:08.088Z,100325.09
2022-10-12T22:13:35.889Z,100322.81
2022-10-12T22:16:09.024Z,100328.59
2022-10-12T22:18:36.385Z,100327.56
2022-10-12T22:21:09.454Z,100322.78
2022-10-12T22:23:36.685Z,100322.03
2022-10-12T22:26:10.849Z,100321.81
2022-10-12T22:28:37.892Z,100329.09
2022-10-12T22:31:07.050Z,100332.09
2022-10-12T22:33:35.442Z,100329.34
2022-10-12T22:36:03.621Z,100321.78
2022-10-12T22:38:34.127Z,100323.53
2022-10-12T22:41:08.665Z,100318.00
2022-10-12T22:43:42.699Z,100317.03
2022-10-12T22:46:10.225Z,100313.00
2022-10-12T22:48:37.913Z,100314.50
2022-10-12T22:51:06.706Z,100313.00
2022-10-12T22:53:34.795Z,100315.75
2022-10-12T22:56:07.974Z,100306.19
2022-10-12T22:58:35.656Z,100310.97
2022-10-12T23:01:02.591Z,100315.75
2022-10-12T23:03:32.431Z,100314.00
2022-10-12T23:06:04.173Z,100317.50
2022-10-12T23:08:31.574Z,100306.97
2022-10-12T23:11:14.105Z,100302.44
2022-10-12T23:13:43.923Z,100314.00
2022-10-12T23:16:16.546Z,100313.00
2022-10-12T23:18:43.698Z,100317.78
2022-10-12T23:21:17.709Z,100314.78
2022-10-12T23:23:45.838Z,100309.25
2022-10-12T23:26:18.777Z,100308.75
2022-10-12T23:28:47.092Z,100314.50
2022-10-12T23:31:22.666Z,100300.66
2022-10-12T23:33:56.757Z,100305.44
2022-10-12T23:36:26.015Z,100306.19
2022-10-12T23:38:55.932Z,100305.94
2022-10-12T23:41:22.980Z,100303.97
2022-10-12T23:43:49.923Z,100304.69
2022-10-12T23:46:17.181Z,100298.41
2022-10-12T23:48:44.136Z,100301.16
2022-10-12T23:51:11.104Z,100305.22
2022-10-12T23:53:39.076Z,100304.94
2022-10-12T23:56:07.132Z,100305.47
2022-10-12T23:58:34.527Z,100307.22
